createdAt,value
2017-08-31T00:00:33.987Z,100142
2017-08-31T00:03:02.112Z,100140
2017-08-31T00:05:30.212Z,100144
2017-08-31T00:07:58.326Z,100142
2017-08-31T00:10:26.595Z,100152
2017-08-31T00:12:54.702Z,100144
2017-08-31T00:15:23.772Z,100162
2017-08-31T00:17:52.825Z,100162
2017-08-31T00:20:20.931Z,100165
2017-08-31T00:22:49.079Z,100165
2017-08-31T00:25:17.395Z,100149
2017-08-31T00:27:45.732Z,100165
2017-08-31T00:30:14.051Z,100164
2017-08-31T00:32:44.143Z,100162
2017-08-31T00:35:12.316Z,100165
2017-08-31T00:37:40.419Z,100173
2017-08-31T00:40:10.696Z,100170
2017-08-31T00:42:39.038Z,100168
2017-08-31T00:45:07.329Z,100168
2017-08-31T00:47:35.437Z,100176
2017-08-31T00:50:03.532Z,100179
2017-08-31T00:52:31.871Z,100183
2017-08-31T00:55:00.190Z,100186
2017-08-31T00:57:28.533Z,100184
2017-08-31T00:59:56.646Z,100190
2017-08-31T01:02:24.808Z,100198
2017-08-31T01:04:53.228Z,100199
2017-08-31T01:07:21.336Z,100202
2017-08-31T01:09:49.419Z,100203
2017-08-31T01:12:18.224Z,100200
2017-08-31T01:14:46.547Z,100207
2017-08-31T01:17:15.299Z,100212
2017-08-31T01:19:43.700Z,100215
2017-08-31T01:22:12.028Z,100218
2017-08-31T01:24:41.160Z,100232
2017-08-31T01:27:09.608Z,100234
2017-08-31T01:29:37.748Z,100217
2017-08-31T01:32:06.131Z,100221
2017-08-31T01:34:34.553Z,100221
2017-08-31T01:37:03.348Z,100221
2017-08-31T01:39:31.947Z,100232
2017-08-31T01:42:00.353Z,100230
2017-08-31T01:44:29.498Z,100216
2017-08-31T01:46:57.823Z,100217
2017-08-31T01:49:25.964Z,100212
2017-08-31T01:51:54.327Z,100217
2017-08-31T01:54:22.655Z,100232
2017-08-31T01:56:50.781Z,100224
2017-08-31T01:59:19.923Z,100230
2017-08-31T02:01:48.075Z,100235
2017-08-31T02:04:16.425Z,100230
2017-08-31T02:06:44.715Z,100247
2017-08-31T02:09:12.816Z,100240
2017-08-31T02:11:41.725Z,100242
2017-08-31T02:14:09.842Z,100230
2017-08-31T02:16:38.852Z,100241
2017-08-31T02:19:07.195Z,100259
2017-08-31T02:21:35.298Z,100272
2017-08-31T02:24:03.401Z,100269
2017-08-31T02:26:31.752Z,100263
2017-08-31T02:29:00.917Z,100266
2017-08-31T02:31:29.023Z,100260
2017-08-31T02:33:57.193Z,100258
2017-08-31T02:36:25.304Z,100264
2017-08-31T02:38:53.631Z,100256
2017-08-31T02:41:22.087Z,100267
2017-08-31T02:43:50.269Z,100264
2017-08-31T02:46:18.620Z,100260
2017-08-31T02:48:46.732Z,100256
2017-08-31T02:51:14.976Z,100252
2017-08-31T02:53:43.754Z,100262
2017-08-31T02:56:11.836Z,100258
2017-08-31T02:58:41.025Z,100283
2017-08-31T03:01:09.347Z,100272
2017-08-31T03:03:37.422Z,100265
2017-08-31T03:06:05.556Z,100269
2017-08-31T03:08:33.879Z,100271
2017-08-31T03:11:02.170Z,100275
2017-08-31T03:13:30.282Z,100266
2017-08-31T03:15:58.628Z,100273
2017-08-31T03:18:26.810Z,100279
2017-08-31T03:20:55.139Z,100287
2017-08-31T03:23:23.441Z,100276
2017-08-31T03:25:52.329Z,100289
2017-08-31T03:28:20.402Z,100288
2017-08-31T03:30:48.757Z,100295
2017-08-31T03:33:17.100Z,100288
2017-08-31T03:35:46.095Z,100291
2017-08-31T03:38:14.371Z,100300
2017-08-31T03:40:42.455Z,100302
2017-08-31T03:43:11.712Z,100298
2017-08-31T03:45:40.031Z,100309
2017-08-31T03:48:08.391Z,100309
2017-08-31T03:50:36.472Z,100309
2017-08-31T03:53:04.618Z,100316
2017-08-31T03:55:32.735Z,100315
2017-08-31T03:58:01.074Z,100316
2017-08-31T04:00:29.268Z,100302
2017-08-31T04:02:57.607Z,100307
2017-08-31T04:05:25.698Z,100316
2017-08-31T04:07:54.759Z,100314
2017-08-31T04:10:23.604Z,100317
2017-08-31T04:12:51.947Z,100334
2017-08-31T04:15:20.107Z,100335
2017-08-31T04:17:48.484Z,100320
2017-08-31T04:20:16.693Z,100332
2017-08-31T04:22:44.775Z,100336
2017-08-31T04:25:12.879Z,100337
2017-08-31T04:27:41.243Z,100344
2017-08-31T04:30:10.291Z,100362
2017-08-31T04:32:38.379Z,100358
2017-08-31T04:35:06.498Z,100368
2017-08-31T04:37:34.847Z,100370
2017-08-31T04:40:03.600Z,100379
2017-08-31T04:42:32.072Z,100391
2017-08-31T04:45:00.162Z,100404
2017-08-31T04:47:28.270Z,100403
2017-08-31T04:49:57.046Z,100413
2017-08-31T04:52:25.143Z,100413
2017-08-31T04:54:53.252Z,100409
2017-08-31T04:57:21.350Z,100417
2017-08-31T04:59:49.435Z,100421
2017-08-31T05:02:17.534Z,100428
2017-08-31T05:04:45.643Z,100441
2017-08-31T05:07:13.756Z,100454
2017-08-31T05:09:41.855Z,100451
2017-08-31T05:12:10.162Z,100455
2017-08-31T05:14:38.264Z,100466
2017-08-31T05:17:06.362Z,100493
2017-08-31T05:19:34.474Z,100482
2017-08-31T05:22:02.600Z,100476
2017-08-31T05:24:30.779Z,100483
2017-08-31T05:26:58.903Z,100490
2017-08-31T05:29:26.987Z,100500
2017-08-31T05:31:55.263Z,100505
2017-08-31T05:34:23.375Z,100502
2017-08-31T05:36:52.388Z,100508
2017-08-31T05:39:20.452Z,100516
2017-08-31T05:41:48.535Z,100518
2017-08-31T05:44:16.648Z,100529
2017-08-31T05:46:45.534Z,100531
2017-08-31T05:49:15.076Z,100529
2017-08-31T05:51:43.195Z,100521
2017-08-31T05:54:11.313Z,100527
2017-08-31T05:56:40.314Z,100531
2017-08-31T05:59:08.447Z,100534
2017-08-31T06:01:36.788Z,100532
2017-08-31T06:04:04.887Z,100537
2017-08-31T06:06:33.015Z,100538
2017-08-31T06:09:01.917Z,100537
2017-08-31T06:11:30.026Z,100545
2017-08-31T06:13:58.120Z,100555
2017-08-31T06:16:27.123Z,100553
2017-08-31T06:18:55.219Z,100556
2017-08-31T06:21:23.598Z,100557
2017-08-31T06:23:51.695Z,100568
2017-08-31T06:26:19.790Z,100565
2017-08-31T06:28:47.900Z,100564
2017-08-31T06:31:15.974Z,100570
2017-08-31T06:33:44.074Z,100570
2017-08-31T06:36:12.158Z,100596
2017-08-31T06:38:40.511Z,100591
2017-08-31T06:41:08.874Z,100590
2017-08-31T06:43:37.151Z,100618
2017-08-31T06:46:05.244Z,100619
2017-08-31T06:48:33.372Z,100624
2017-08-31T06:51:01.636Z,100631
2017-08-31T06:53:29.998Z,100632
2017-08-31T06:55:58.815Z,100642
2017-08-31T06:58:26.987Z,100638
2017-08-31T07:00:55.088Z,100648
2017-08-31T07:03:23.577Z,100653
2017-08-31T07:05:51.956Z,100642
2017-08-31T07:08:20.028Z,100645
2017-08-31T07:10:48.154Z,100643
2017-08-31T07:13:16.263Z,100636
2017-08-31T07:15:44.376Z,100659
2017-08-31T07:18:12.483Z,100665
2017-08-31T07:20:40.828Z,100671
2017-08-31T07:23:08.927Z,100664
2017-08-31T07:25:37.000Z,100679
2017-08-31T07:28:05.284Z,100681
2017-08-31T07:30:33.587Z,100697
2017-08-31T07:33:01.711Z,100700
2017-08-31T07:35:30.492Z,100706
2017-08-31T07:37:59.334Z,100711
2017-08-31T07:40:27.499Z,100704
2017-08-31T07:42:55.811Z,100710
2017-08-31T07:45:23.976Z,100728
2017-08-31T07:47:53.209Z,100733
2017-08-31T07:50:21.524Z,100727
2017-08-31T07:52:49.620Z,100741
2017-08-31T07:55:17.885Z,100751
2017-08-31T07:57:46.779Z,100750
2017-08-31T08:00:15.565Z,100754
2017-08-31T08:02:44.020Z,100750
2017-08-31T08:05:12.168Z,100743
2017-08-31T08:07:41.312Z,100767
2017-08-31T08:10:09.608Z,100767
2017-08-31T08:12:37.728Z,100771
2017-08-31T08:15:06.488Z,100772
2017-08-31T08:17:34.593Z,100761
2017-08-31T08:20:02.772Z,100785
2017-08-31T08:22:31.015Z,100789
2017-08-31T08:24:59.340Z,100799
2017-08-31T08:27:27.560Z,100803
2017-08-31T08:29:55.779Z,100813
2017-08-31T08:32:24.087Z,100824
2017-08-31T08:34:52.695Z,100808
2017-08-31T08:37:20.937Z,100817
2017-08-31T08:39:49.352Z,100815
2017-08-31T08:42:17.752Z,100830
2017-08-31T08:44:45.871Z,100831
2017-08-31T08:47:13.995Z,100826
2017-08-31T08:49:43.047Z,100833
2017-08-31T08:52:11.143Z,100836
2017-08-31T08:54:40.067Z,100837
2017-08-31T08:57:08.178Z,100832
2017-08-31T08:59:36.538Z,100847
2017-08-31T09:02:04.620Z,100854
2017-08-31T09:04:32.962Z,100866
2017-08-31T09:07:01.071Z,100866
2017-08-31T09:09:29.488Z,100871
2017-08-31T09:11:57.818Z,100876
2017-08-31T09:14:25.920Z,100870
2017-08-31T09:16:54.010Z,100876
2017-08-31T09:19:24.022Z,100871
2017-08-31T09:21:52.462Z,100880
2017-08-31T09:24:20.590Z,100890
2017-08-31T09:26:48.847Z,100879
2017-08-31T09:29:16.963Z,100909
2017-08-31T09:31:45.035Z,100896
2017-08-31T09:34:13.360Z,100896
2017-08-31T09:36:41.475Z,100899
2017-08-31T09:39:09.619Z,100892
2017-08-31T09:41:37.893Z,100896
2017-08-31T09:44:06.791Z,100914
2017-08-31T09:46:35.878Z,100910
2017-08-31T09:49:04.907Z,100912
2017-08-31T09:51:33.026Z,100914
2017-08-31T09:54:01.140Z,100914
2017-08-31T09:56:29.949Z,100915
2017-08-31T09:58:58.332Z,100908
2017-08-31T10:01:26.437Z,100914
2017-08-31T10:03:54.557Z,100912
2017-08-31T10:06:22.635Z,100923
2017-08-31T10:08:51.667Z,100929
2017-08-31T10:11:19.771Z,100932
2017-08-31T10:13:47.892Z,100949
2017-08-31T10:16:16.103Z,100945
2017-08-31T10:18:44.172Z,100964
2017-08-31T10:21:13.297Z,100949
2017-08-31T10:23:41.485Z,100959
2017-08-31T10:26:09.818Z,100964
2017-08-31T10:28:37.910Z,100965
2017-08-31T10:31:06.015Z,100964
2017-08-31T10:33:34.131Z,100967
2017-08-31T10:36:02.253Z,100965
2017-08-31T10:38:30.339Z,100875
2017-08-31T10:40:58.445Z,100980
2017-08-31T10:43:26.539Z,100976
2017-08-31T10:45:54.655Z,100986
2017-08-31T10:48:22.764Z,100988
2017-08-31T10:50:50.856Z,100993
2017-08-31T10:53:19.883Z,100998
2017-08-31T10:55:48.900Z,101001
2017-08-31T10:58:17.003Z,101010
2017-08-31T11:00:45.128Z,101001
2017-08-31T11:03:14.073Z,101006
2017-08-31T11:05:43.091Z,101006
2017-08-31T11:08:11.210Z,101008
2017-08-31T11:10:39.444Z,101017
2017-08-31T11:13:07.516Z,101008
2017-08-31T11:15:35.629Z,101018
2017-08-31T11:18:03.724Z,101021
2017-08-31T11:20:31.799Z,101011
2017-08-31T11:23:00.007Z,101016
2017-08-31T11:25:28.359Z,101018
2017-08-31T11:27:56.605Z,101023
2017-08-31T11:30:24.717Z,101020
2017-08-31T11:32:52.781Z,101036
2017-08-31T11:35:21.146Z,101040
2017-08-31T11:37:49.199Z,101044
2017-08-31T11:40:18.479Z,101045
2017-08-31T11:42:46.579Z,101041
2017-08-31T11:45:14.953Z,101053
2017-08-31T11:47:44.043Z,101062
2017-08-31T11:50:13.075Z,101059
2017-08-31T11:52:41.388Z,101066
2017-08-31T11:55:09.521Z,101061
2017-08-31T11:57:37.620Z,101063
2017-08-31T12:00:06.929Z,101066
2017-08-31T12:02:35.463Z,101077
2017-08-31T12:05:04.336Z,101081
2017-08-31T12:07:32.754Z,101079
2017-08-31T12:10:01.765Z,101089
2017-08-31T12:12:30.051Z,101087
2017-08-31T12:14:58.136Z,101091
2017-08-31T12:17:26.582Z,101099
2017-08-31T12:19:54.929Z,101092
2017-08-31T12:22:24.207Z,101089
2017-08-31T12:24:52.313Z,101105
2017-08-31T12:27:20.412Z,101102
2017-08-31T12:29:48.513Z,101110
2017-08-31T12:32:16.834Z,101104
2017-08-31T12:34:45.112Z,101103
2017-08-31T12:37:13.213Z,101116
2017-08-31T12:39:41.297Z,101116
2017-08-31T12:42:09.394Z,101119
2017-08-31T12:44:37.493Z,101111
2017-08-31T12:47:05.592Z,101100
2017-08-31T12:49:33.708Z,101119
2017-08-31T12:52:02.004Z,101116
2017-08-31T12:54:31.045Z,101113
2017-08-31T12:57:00.065Z,101112
2017-08-31T12:59:28.297Z,101131
2017-08-31T13:01:56.483Z,101122
2017-08-31T13:04:25.366Z,101117
2017-08-31T13:06:53.624Z,101120
2017-08-31T13:09:21.719Z,101130
2017-08-31T13:11:50.949Z,101133
2017-08-31T13:14:19.802Z,101133
2017-08-31T13:16:47.991Z,101130
2017-08-31T13:19:16.097Z,101091
2017-08-31T13:21:44.228Z,101123
2017-08-31T13:24:12.546Z,101121
2017-08-31T13:26:40.883Z,101120
2017-08-31T13:29:09.304Z,101123
2017-08-31T13:31:37.383Z,101113
2017-08-31T13:34:05.680Z,101125
2017-08-31T13:36:33.790Z,101033
2017-08-31T13:39:01.881Z,101125
2017-08-31T13:41:30.004Z,101136
2017-08-31T13:43:58.100Z,101133
2017-08-31T13:46:26.201Z,101144
2017-08-31T13:48:54.281Z,101139
2017-08-31T13:51:22.541Z,101142
2017-08-31T13:53:51.806Z,101138
2017-08-31T13:56:20.156Z,101137
2017-08-31T13:58:48.346Z,101139
2017-08-31T14:01:16.696Z,101141
2017-08-31T14:03:45.684Z,101135
2017-08-31T14:06:15.899Z,101129
2017-08-31T14:08:44.303Z,101128
2017-08-31T14:11:12.927Z,101131
2017-08-31T14:13:41.284Z,101132
2017-08-31T14:16:09.662Z,101121
2017-08-31T14:18:37.775Z,101125
2017-08-31T14:21:06.719Z,101126
2017-08-31T14:23:35.106Z,101130
2017-08-31T14:26:03.187Z,101126
2017-08-31T14:28:31.524Z,101126
2017-08-31T14:30:59.708Z,101133
2017-08-31T14:33:28.863Z,101134
2017-08-31T14:35:56.962Z,101136
2017-08-31T14:38:25.062Z,101128
2017-08-31T14:40:55.733Z,101129
2017-08-31T14:43:24.058Z,101130
2017-08-31T14:45:53.114Z,101127
2017-08-31T14:48:21.469Z,101130
2017-08-31T14:50:49.871Z,101134
2017-08-31T14:53:18.192Z,101123
2017-08-31T14:55:46.560Z,101129
2017-08-31T14:58:14.649Z,101135
2017-08-31T15:00:43.044Z,101129
2017-08-31T15:03:12.292Z,101140
2017-08-31T15:05:41.330Z,101130
2017-08-31T15:08:09.444Z,101128
2017-08-31T15:10:37.867Z,101139
2017-08-31T15:13:07.712Z,101144
2017-08-31T15:15:36.519Z,101146
2017-08-31T15:18:04.855Z,101148
2017-08-31T15:20:33.994Z,101140
2017-08-31T15:23:02.101Z,101151
2017-08-31T15:25:30.460Z,101161
2017-08-31T15:27:58.560Z,101156
2017-08-31T15:30:26.652Z,101163
2017-08-31T15:32:54.850Z,101173
2017-08-31T15:35:24.751Z,101166
2017-08-31T15:37:52.852Z,101180
2017-08-31T15:40:21.114Z,101185
2017-08-31T15:42:49.880Z,101172
2017-08-31T15:45:19.844Z,101178
2017-08-31T15:47:48.172Z,101188
2017-08-31T15:50:16.270Z,101177
2017-08-31T15:52:45.456Z,101180
2017-08-31T15:55:13.798Z,101174
2017-08-31T15:57:42.134Z,101180
2017-08-31T16:00:10.443Z,101183
2017-08-31T16:02:39.679Z,101181
2017-08-31T16:05:07.780Z,101191
2017-08-31T16:07:35.885Z,101192
2017-08-31T16:10:04.732Z,101199
2017-08-31T16:12:32.825Z,101201
2017-08-31T16:15:01.440Z,101194
2017-08-31T16:17:30.321Z,101188
2017-08-31T16:19:59.299Z,101184
2017-08-31T16:22:28.327Z,101185
2017-08-31T16:24:56.605Z,101190
2017-08-31T16:27:24.951Z,101192
2017-08-31T16:29:53.035Z,101194
2017-08-31T16:32:21.435Z,101198
2017-08-31T16:34:49.652Z,101202
2017-08-31T16:37:18.643Z,101202
2017-08-31T16:39:47.664Z,101198
2017-08-31T16:42:15.807Z,101207
2017-08-31T16:44:43.923Z,101209
2017-08-31T16:47:13.224Z,101210
2017-08-31T16:49:42.113Z,101207
2017-08-31T16:52:10.319Z,101217
2017-08-31T16:54:38.507Z,101205
2017-08-31T16:57:06.604Z,101176
2017-08-31T16:59:34.887Z,101227
2017-08-31T17:02:03.007Z,101215
2017-08-31T17:04:31.088Z,101229
2017-08-31T17:06:59.205Z,101225
2017-08-31T17:09:28.109Z,101227
2017-08-31T17:11:56.304Z,101233
2017-08-31T17:14:24.436Z,101232
2017-08-31T17:16:53.370Z,101231
2017-08-31T17:19:21.521Z,101236
2017-08-31T17:21:49.966Z,101232
2017-08-31T17:24:18.877Z,101236
2017-08-31T17:26:47.020Z,101227
2017-08-31T17:29:15.859Z,101227
2017-08-31T17:31:43.986Z,101230
2017-08-31T17:34:13.108Z,101236
2017-08-31T17:36:41.223Z,101236
2017-08-31T17:39:09.328Z,101236
2017-08-31T17:41:37.415Z,101239
2017-08-31T17:44:06.951Z,101239
2017-08-31T17:46:35.093Z,101244
2017-08-31T17:49:04.087Z,101254
2017-08-31T17:51:32.245Z,101255
2017-08-31T17:54:00.332Z,101255
2017-08-31T17:56:28.481Z,101263
2017-08-31T17:58:56.592Z,101264
2017-08-31T18:01:24.703Z,101257
2017-08-31T18:03:53.644Z,101259
2017-08-31T18:06:21.727Z,101263
2017-08-31T18:08:49.885Z,101269
2017-08-31T18:11:18.184Z,101264
2017-08-31T18:13:46.334Z,101276
2017-08-31T18:16:14.434Z,101271
2017-08-31T18:18:43.456Z,101282
2017-08-31T18:21:11.556Z,101288
2017-08-31T18:23:39.664Z,101289
2017-08-31T18:26:08.758Z,101296
2017-08-31T18:28:36.918Z,101300
2017-08-31T18:31:05.790Z,101292
2017-08-31T18:33:35.603Z,101302
2017-08-31T18:36:03.706Z,101300
2017-08-31T18:38:31.815Z,101297
2017-08-31T18:41:00.860Z,101304
2017-08-31T18:43:28.935Z,101303
2017-08-31T18:45:57.036Z,101300
2017-08-31T18:48:25.131Z,101310
2017-08-31T18:50:53.269Z,101306
2017-08-31T18:53:21.349Z,101311
2017-08-31T18:55:49.430Z,101313
2017-08-31T18:58:17.559Z,101320
2017-08-31T19:00:47.758Z,101318
2017-08-31T19:03:15.836Z,101310
2017-08-31T19:05:43.998Z,101322
2017-08-31T19:08:12.114Z,101329
2017-08-31T19:10:40.275Z,101326
2017-08-31T19:13:08.361Z,101324
2017-08-31T19:15:38.388Z,101345
2017-08-31T19:18:06.511Z,101335
2017-08-31T19:20:34.620Z,101341
2017-08-31T19:23:04.664Z,101334
2017-08-31T19:25:32.793Z,101335
2017-08-31T19:28:00.909Z,101339
2017-08-31T19:30:30.751Z,101316
2017-08-31T19:32:58.838Z,101328
2017-08-31T19:35:28.251Z,101331
2017-08-31T19:37:56.351Z,101339
2017-08-31T19:40:24.475Z,101342
2017-08-31T19:42:53.501Z,101341
2017-08-31T19:45:22.478Z,101341
2017-08-31T19:47:50.587Z,101346
2017-08-31T19:50:18.771Z,101350
2017-08-31T19:52:46.869Z,101355
2017-08-31T19:55:15.904Z,101343
2017-08-31T19:57:44.031Z,101327
2017-08-31T20:00:13.055Z,101352
2017-08-31T20:02:41.447Z,101347
2017-08-31T20:05:09.584Z,101347
2017-08-31T20:07:38.515Z,101349
2017-08-31T20:10:07.484Z,101304
2017-08-31T20:12:36.487Z,101336
2017-08-31T20:15:05.508Z,101342
2017-08-31T20:17:33.911Z,101335
2017-08-31T20:20:02.041Z,101343
2017-08-31T20:22:32.064Z,101347
2017-08-31T20:25:00.611Z,101346
2017-08-31T20:27:28.752Z,101350
2017-08-31T20:29:58.071Z,101346
2017-08-31T20:32:26.269Z,101348
2017-08-31T20:34:54.374Z,101350
2017-08-31T20:37:24.807Z,101345
2017-08-31T20:39:53.171Z,101367
2017-08-31T20:42:22.952Z,101355
2017-08-31T20:44:51.075Z,101364
2017-08-31T20:47:20.473Z,101362
2017-08-31T20:49:48.603Z,101351
2017-08-31T20:52:16.701Z,101347
2017-08-31T20:54:46.188Z,101358
2017-08-31T20:57:16.141Z,101355
2017-08-31T20:59:44.282Z,101359
2017-08-31T21:02:12.402Z,101348
2017-08-31T21:04:40.792Z,101357
2017-08-31T21:07:09.890Z,100919
2017-08-31T21:09:37.981Z,101363
2017-08-31T21:12:06.097Z,101361
2017-08-31T21:14:35.740Z,101363
2017-08-31T21:17:03.963Z,101367
2017-08-31T21:19:32.123Z,101358
2017-08-31T21:22:01.188Z,101361
2017-08-31T21:24:29.484Z,101361
2017-08-31T21:26:58.750Z,101366
2017-08-31T21:29:27.095Z,101367
2017-08-31T21:31:55.372Z,101364
2017-08-31T21:34:24.361Z,101371
2017-08-31T21:36:53.289Z,101370
2017-08-31T21:39:21.437Z,101405
2017-08-31T21:41:49.535Z,101375
2017-08-31T21:44:17.729Z,101375
2017-08-31T21:46:45.853Z,101375
2017-08-31T21:49:14.908Z,101376
2017-08-31T21:51:43.066Z,101367
2017-08-31T21:54:13.091Z,101373
2017-08-31T21:56:42.197Z,101372
2017-08-31T21:59:11.155Z,101375
2017-08-31T22:01:39.497Z,101366
2017-08-31T22:04:08.493Z,101382
2017-08-31T22:06:36.658Z,101368
2017-08-31T22:09:04.788Z,101374
2017-08-31T22:11:32.940Z,101374
2017-08-31T22:14:01.080Z,101384
2017-08-31T22:16:30.953Z,101380
2017-08-31T22:19:01.630Z,101381
2017-08-31T22:21:30.839Z,101374
2017-08-31T22:23:59.083Z,101375
2017-08-31T22:26:27.971Z,101375
2017-08-31T22:28:56.097Z,101381
2017-08-31T22:31:25.222Z,101373
2017-08-31T22:33:54.244Z,101376
2017-08-31T22:36:22.412Z,101391
2017-08-31T22:38:51.432Z,101374
2017-08-31T22:41:20.467Z,101371
2017-08-31T22:43:49.475Z,101366
2017-08-31T22:46:17.595Z,101381
2017-08-31T22:48:45.669Z,101380
2017-08-31T22:51:14.602Z,101379
2017-08-31T22:53:44.554Z,101384
2017-08-31T22:56:12.695Z,101376
2017-08-31T22:58:45.595Z,101384
2017-08-31T23:01:13.783Z,101384
2017-08-31T23:03:41.925Z,101383
2017-08-31T23:06:10.188Z,101380
2017-08-31T23:08:39.180Z,101383
2017-08-31T23:11:08.217Z,101387
2017-08-31T23:13:36.335Z,101403
2017-08-31T23:16:04.450Z,101384
2017-08-31T23:18:32.550Z,101381
2017-08-31T23:21:00.662Z,101390
2017-08-31T23:23:29.685Z,101382
2017-08-31T23:25:58.635Z,101386
2017-08-31T23:28:27.679Z,101388
2017-08-31T23:30:56.688Z,101392
2017-08-31T23:33:26.672Z,101391
2017-08-31T23:35:54.817Z,101395
2017-08-31T23:38:24.548Z,101393
2017-08-31T23:40:52.656Z,101385
2017-08-31T23:43:22.560Z,101384
2017-08-31T23:45:51.500Z,101386
2017-08-31T23:48:19.607Z,101387
2017-08-31T23:50:49.704Z,101389
2017-08-31T23:53:17.919Z,101382
2017-08-31T23:55:46.099Z,101370
2017-08-31T23:58:14.949Z,101379
